createdAt,value
2018-12-07T00:00:45.414Z,13.30
2018-12-07T00:01:50.012Z,13.30
2018-12-07T00:02:54.703Z,13.30
2018-12-07T00:03:59.476Z,13.30
2018-12-07T00:05:05.626Z,13.30
2018-12-07T00:06:12.194Z,13.30
2018-12-07T00:07:18.100Z,13.30
2018-12-07T00:08:22.453Z,13.30
2018-12-07T00:09:27.245Z,13.30
2018-12-07T00:10:32.432Z,13.30
2018-12-07T00:11:36.898Z,13.30
2018-12-07T00:12:41.281Z,13.30
2018-12-07T00:13:46.407Z,13.30
2018-12-07T00:14:53.013Z,13.30
2018-12-07T00:15:58.401Z,13.30
2018-12-07T00:17:02.941Z,13.30
2018-12-07T00:18:09.004Z,13.30
2018-12-07T00:19:15.538Z,13.30
2018-12-07T00:20:20.776Z,13.30
2018-12-07T00:21:25.136Z,13.30
2018-12-07T00:22:29.705Z,13.30
2018-12-07T00:23:34.079Z,13.30
2018-12-07T00:24:38.449Z,13.40
2018-12-07T00:25:42.940Z,13.40
2018-12-07T00:26:47.335Z,13.40
2018-12-07T00:27:51.945Z,13.30
2018-12-07T00:28:56.644Z,13.30
2018-12-07T00:30:01.003Z,13.30
2018-12-07T00:31:05.744Z,13.30
2018-12-07T00:32:10.887Z,13.30
2018-12-07T00:33:15.689Z,13.20
2018-12-07T00:34:20.237Z,13.20
2018-12-07T00:35:24.929Z,13.20
2018-12-07T00:36:29.490Z,13.20
2018-12-07T00:37:34.420Z,13.20
2018-12-07T00:38:38.877Z,13.20
2018-12-07T00:39:43.300Z,13.20
2018-12-07T00:40:48.193Z,13.20
2018-12-07T00:41:52.569Z,13.20
2018-12-07T00:42:58.583Z,13.20
2018-12-07T00:44:03.125Z,13.20
2018-12-07T00:45:07.848Z,13.20
2018-12-07T00:46:13.980Z,13.20
2018-12-07T00:47:18.319Z,13.20
2018-12-07T00:48:23.652Z,13.20
2018-12-07T00:49:28.266Z,13.10
2018-12-07T00:50:32.734Z,13.10
2018-12-07T00:51:37.087Z,13.10
2018-12-07T00:52:42.204Z,13.10
2018-12-07T00:53:47.720Z,13.20
2018-12-07T00:54:52.066Z,13.20
2018-12-07T00:55:56.450Z,13.20
2018-12-07T00:57:00.825Z,13.20
2018-12-07T00:58:05.295Z,13.20
2018-12-07T00:59:09.632Z,13.10
2018-12-07T01:00:14.011Z,13.10
2018-12-07T01:01:19.469Z,13.10
2018-12-07T01:02:23.911Z,13.10
2018-12-07T01:03:28.248Z,13.10
2018-12-07T01:04:32.606Z,13.10
2018-12-07T01:05:37.321Z,13.10
2018-12-07T01:06:41.703Z,13.10
2018-12-07T01:07:46.114Z,13.10
2018-12-07T01:08:50.426Z,13.10
2018-12-07T01:09:54.738Z,13.10
2018-12-07T01:10:59.239Z,13.10
2018-12-07T01:12:05.281Z,13.10
2018-12-07T01:13:09.919Z,13.10
2018-12-07T01:14:14.315Z,13.10
2018-12-07T01:15:18.656Z,13.10
2018-12-07T01:16:23.322Z,13.10
2018-12-07T01:17:27.662Z,13.20
2018-12-07T01:18:31.982Z,13.20
2018-12-07T01:19:36.948Z,13.20
2018-12-07T01:20:41.275Z,13.20
2018-12-07T01:21:45.607Z,13.20
2018-12-07T01:22:49.926Z,13.20
2018-12-07T01:23:54.567Z,13.20
2018-12-07T01:24:59.947Z,13.20
2018-12-07T01:26:04.352Z,13.20
2018-12-07T01:27:08.680Z,13.20
2018-12-07T01:28:13.055Z,13.20
2018-12-07T01:29:17.400Z,13.20
2018-12-07T01:30:21.700Z,13.20
2018-12-07T01:31:26.076Z,13.20
2018-12-07T01:32:30.426Z,13.10
2018-12-07T01:33:34.847Z,13.10
2018-12-07T01:34:39.243Z,13.10
2018-12-07T01:35:43.635Z,13.10
2018-12-07T01:36:47.974Z,13.10
2018-12-07T01:37:52.362Z,13.10
2018-12-07T01:38:56.691Z,13.20
2018-12-07T01:40:01.078Z,13.20
2018-12-07T01:41:05.968Z,13.10
2018-12-07T01:42:10.296Z,13.10
2018-12-07T01:43:14.638Z,13.10
2018-12-07T01:44:49.741Z,13.10
2018-12-07T01:45:54.036Z,13.10
2018-12-07T01:46:58.892Z,13.10
2018-12-07T01:48:03.277Z,13.10
2018-12-07T01:49:07.600Z,13.10
2018-12-07T01:50:12.636Z,13.10
2018-12-07T01:51:17.048Z,13.10
2018-12-07T01:52:21.685Z,13.10
2018-12-07T01:53:26.336Z,13.10
2018-12-07T01:54:30.667Z,13.00
2018-12-07T01:55:35.100Z,13.00
2018-12-07T01:56:39.744Z,13.00
2018-12-07T01:57:44.272Z,13.00
2018-12-07T01:58:48.632Z,13.00
2018-12-07T01:59:52.967Z,13.00
2018-12-07T02:00:58.056Z,12.90
2018-12-07T02:02:02.886Z,12.90
2018-12-07T02:03:09.005Z,12.90
2018-12-07T02:04:13.374Z,12.90
2018-12-07T02:05:17.694Z,12.80
2018-12-07T02:06:22.073Z,12.80
2018-12-07T02:07:31.691Z,12.80
2018-12-07T02:08:36.094Z,12.80
2018-12-07T02:09:40.485Z,12.70
2018-12-07T02:10:45.232Z,12.70
2018-12-07T02:11:49.690Z,12.70
2018-12-07T02:12:54.052Z,12.60
2018-12-07T02:13:58.588Z,12.70
2018-12-07T02:15:02.994Z,12.70
2018-12-07T02:16:07.387Z,12.70
2018-12-07T02:17:11.787Z,12.70
2018-12-07T02:18:16.117Z,12.70
2018-12-07T02:19:20.855Z,12.70
2018-12-07T02:20:25.196Z,12.70
2018-12-07T02:21:29.662Z,12.70
2018-12-07T02:22:34.642Z,12.80
2018-12-07T02:23:38.976Z,12.80
2018-12-07T02:24:43.367Z,12.80
2018-12-07T02:25:47.693Z,12.80
2018-12-07T02:26:52.495Z,12.80
2018-12-07T02:28:00.549Z,12.80
2018-12-07T02:29:04.944Z,12.80
2018-12-07T02:30:09.453Z,12.80
2018-12-07T02:31:14.838Z,12.70
2018-12-07T02:32:19.133Z,12.70
2018-12-07T02:33:23.469Z,12.70
2018-12-07T02:34:27.776Z,12.70
2018-12-07T02:35:32.516Z,12.70
2018-12-07T02:36:36.812Z,12.70
2018-12-07T02:37:41.128Z,12.70
2018-12-07T02:38:45.462Z,12.70
2018-12-07T02:39:49.796Z,12.70
2018-12-07T02:40:54.624Z,12.70
2018-12-07T02:41:59.004Z,12.70
2018-12-07T02:43:03.639Z,12.60
2018-12-07T02:44:08.016Z,12.60
2018-12-07T02:45:12.369Z,12.60
2018-12-07T02:46:17.349Z,12.60
2018-12-07T02:47:21.689Z,12.60
2018-12-07T02:48:26.028Z,12.60
2018-12-07T02:49:30.346Z,12.60
2018-12-07T02:50:34.656Z,12.60
2018-12-07T02:51:39.028Z,12.60
2018-12-07T02:52:43.344Z,12.60
2018-12-07T02:53:48.844Z,12.60
2018-12-07T02:54:54.082Z,12.60
2018-12-07T02:55:59.192Z,12.60
2018-12-07T02:57:03.534Z,12.60
2018-12-07T02:58:07.852Z,12.60
2018-12-07T02:59:12.274Z,12.60
2018-12-07T03:00:16.581Z,12.60
2018-12-07T03:01:20.946Z,12.60
2018-12-07T03:02:25.313Z,12.60
2018-12-07T03:03:29.669Z,12.60
2018-12-07T03:04:34.051Z,12.60
2018-12-07T03:05:38.392Z,12.60
2018-12-07T03:06:42.814Z,12.60
2018-12-07T03:07:47.236Z,12.60
2018-12-07T03:08:51.535Z,12.60
2018-12-07T03:09:56.117Z,12.60
2018-12-07T03:11:00.693Z,12.60
2018-12-07T03:12:05.447Z,12.60
2018-12-07T03:13:09.819Z,12.60
2018-12-07T03:14:14.371Z,12.60
2018-12-07T03:15:18.758Z,12.60
2018-12-07T03:16:23.093Z,12.60
2018-12-07T03:17:28.169Z,12.60
2018-12-07T03:18:33.594Z,12.60
2018-12-07T03:19:37.924Z,12.60
2018-12-07T03:20:42.213Z,12.60
2018-12-07T03:21:46.521Z,12.60
2018-12-07T03:22:50.880Z,12.60
2018-12-07T03:23:55.268Z,12.60
2018-12-07T03:25:00.913Z,12.60
2018-12-07T03:26:05.315Z,12.70
2018-12-07T03:27:09.668Z,12.70
2018-12-07T03:28:14.024Z,12.60
2018-12-07T03:29:18.405Z,12.60
2018-12-07T03:30:22.737Z,12.60
2018-12-07T03:31:27.041Z,12.60
2018-12-07T03:32:31.522Z,12.60
2018-12-07T03:33:35.927Z,12.60
2018-12-07T03:34:40.410Z,12.60
2018-12-07T03:35:44.859Z,12.60
2018-12-07T03:36:49.499Z,12.60
2018-12-07T03:37:53.860Z,12.60
2018-12-07T03:38:58.256Z,12.60
2018-12-07T03:40:02.604Z,12.60
2018-12-07T03:41:07.740Z,12.60
2018-12-07T03:42:12.133Z,12.60
2018-12-07T03:43:16.553Z,12.60
2018-12-07T03:44:20.918Z,12.60
2018-12-07T03:45:25.419Z,12.60
2018-12-07T03:46:29.953Z,12.50
2018-12-07T03:47:34.377Z,12.50
2018-12-07T03:48:38.750Z,12.60
2018-12-07T03:49:43.182Z,12.50
2018-12-07T03:50:47.565Z,12.50
2018-12-07T03:51:52.008Z,12.60
2018-12-07T03:52:56.783Z,12.50
2018-12-07T03:54:01.176Z,12.50
2018-12-07T03:55:05.565Z,12.50
2018-12-07T03:56:10.861Z,12.50
2018-12-07T03:57:15.300Z,12.50
2018-12-07T03:58:19.687Z,12.50
2018-12-07T03:59:24.086Z,12.50
2018-12-07T04:00:28.500Z,12.40
2018-12-07T04:01:33.209Z,12.40
2018-12-07T04:02:37.548Z,12.40
2018-12-07T04:03:42.015Z,12.40
2018-12-07T04:04:46.354Z,12.40
2018-12-07T04:05:51.033Z,12.50
2018-12-07T04:06:55.605Z,12.50
2018-12-07T04:07:59.966Z,12.50
2018-12-07T04:09:05.909Z,12.50
2018-12-07T04:10:10.274Z,12.50
2018-12-07T04:11:14.929Z,12.50
2018-12-07T04:12:19.329Z,12.50
2018-12-07T04:13:23.752Z,12.50
2018-12-07T04:14:30.084Z,12.50
2018-12-07T04:15:35.108Z,12.60
2018-12-07T04:16:41.007Z,12.60
2018-12-07T04:17:45.367Z,12.50
2018-12-07T04:18:50.050Z,12.50
2018-12-07T04:19:54.552Z,12.60
2018-12-07T04:20:59.140Z,12.60
2018-12-07T04:22:03.904Z,12.60
2018-12-07T04:23:08.262Z,12.60
2018-12-07T04:24:12.570Z,12.60
2018-12-07T04:25:16.978Z,12.60
2018-12-07T04:26:21.417Z,12.60
2018-12-07T04:27:26.203Z,12.60
2018-12-07T04:28:30.581Z,12.60
2018-12-07T04:29:34.944Z,12.60
2018-12-07T04:30:39.304Z,12.60
2018-12-07T04:31:43.680Z,12.60
2018-12-07T04:32:48.018Z,12.60
2018-12-07T04:33:52.322Z,12.60
2018-12-07T04:34:56.713Z,12.60
2018-12-07T04:36:07.275Z,12.60
2018-12-07T04:37:07.545Z,12.60
2018-12-07T04:38:13.281Z,12.60
2018-12-07T04:39:19.519Z,12.60
2018-12-07T04:40:25.345Z,12.60
2018-12-07T04:41:29.705Z,12.60
2018-12-07T04:42:34.052Z,12.60
2018-12-07T04:43:39.576Z,12.60
2018-12-07T04:44:44.165Z,12.60
2018-12-07T04:45:48.977Z,12.50
2018-12-07T04:46:53.576Z,12.60
2018-12-07T04:47:59.353Z,12.50
2018-12-07T04:49:04.035Z,12.50
2018-12-07T04:50:09.219Z,12.50
2018-12-07T04:51:13.855Z,12.50
2018-12-07T04:54:14.796Z,12.50
2018-12-07T04:55:19.112Z,12.40
2018-12-07T04:56:23.472Z,12.40
2018-12-07T04:57:27.778Z,12.40
2018-12-07T04:58:33.689Z,12.40
2018-12-07T04:59:38.007Z,12.30
2018-12-07T05:00:42.642Z,12.30
2018-12-07T05:01:47.347Z,12.30
2018-12-07T05:02:52.041Z,12.30
2018-12-07T05:03:56.722Z,12.30
2018-12-07T05:05:01.007Z,12.30
2018-12-07T05:06:06.028Z,12.30
2018-12-07T05:07:10.342Z,12.30
2018-12-07T05:08:14.746Z,12.20
2018-12-07T05:09:19.860Z,12.20
2018-12-07T05:10:24.158Z,12.20
2018-12-07T05:11:28.484Z,12.20
2018-12-07T05:12:32.824Z,12.20
2018-12-07T05:13:38.380Z,12.20
2018-12-07T05:14:43.436Z,12.20
2018-12-07T05:15:47.730Z,12.20
2018-12-07T05:16:52.136Z,12.20
2018-12-07T05:17:56.443Z,12.10
2018-12-07T05:19:00.719Z,12.10
2018-12-07T05:20:06.560Z,12.10
2018-12-07T05:21:12.119Z,12.10
2018-12-07T05:22:16.426Z,12.10
2018-12-07T05:23:21.340Z,12.10
2018-12-07T05:24:25.912Z,12.10
2018-12-07T05:25:30.330Z,12.10
2018-12-07T05:26:35.880Z,12.00
2018-12-07T05:27:40.513Z,12.00
2018-12-07T05:28:46.222Z,12.00
2018-12-07T05:29:50.561Z,12.00
2018-12-07T05:30:55.806Z,12.00
2018-12-07T05:32:02.592Z,12.00
2018-12-07T05:33:07.720Z,11.90
2018-12-07T05:34:12.593Z,12.00
2018-12-07T05:35:16.953Z,12.00
2018-12-07T05:36:21.493Z,12.00
2018-12-07T05:37:26.564Z,12.00
2018-12-07T05:38:31.447Z,12.00
2018-12-07T05:39:35.967Z,12.00
2018-12-07T05:40:41.464Z,12.00
2018-12-07T05:41:46.920Z,12.00
2018-12-07T05:42:53.089Z,12.00
2018-12-07T05:43:59.014Z,11.90
2018-12-07T05:45:04.269Z,12.00
2018-12-07T05:46:09.207Z,11.90
2018-12-07T05:47:14.476Z,11.90
2018-12-07T05:48:23.670Z,11.90
2018-12-07T05:49:27.259Z,11.90
2018-12-07T05:50:32.183Z,11.90
2018-12-07T05:51:36.873Z,11.90
2018-12-07T05:52:42.933Z,11.90
2018-12-07T05:53:47.970Z,11.90
2018-12-07T05:54:52.688Z,11.90
2018-12-07T05:55:59.659Z,11.90
2018-12-07T05:57:04.704Z,11.90
2018-12-07T05:58:09.818Z,11.90
2018-12-07T05:59:14.832Z,11.80
2018-12-07T06:00:19.982Z,11.90
2018-12-07T06:01:25.602Z,11.90
2018-12-07T06:02:31.664Z,11.90
2018-12-07T06:03:37.783Z,11.90
2018-12-07T06:04:42.824Z,11.90
2018-12-07T06:05:49.044Z,11.90
2018-12-07T06:06:56.466Z,11.80
2018-12-07T06:08:01.933Z,11.80
2018-12-07T06:09:08.672Z,11.80
2018-12-07T06:10:14.279Z,11.80
2018-12-07T06:11:20.274Z,11.80
2018-12-07T06:12:27.894Z,11.80
2018-12-07T06:13:35.237Z,11.80
2018-12-07T06:14:41.061Z,11.80
2018-12-07T06:15:46.471Z,11.80
2018-12-07T06:16:53.544Z,11.80
2018-12-07T06:18:00.846Z,11.80
2018-12-07T06:19:06.652Z,11.80
2018-12-07T06:20:12.476Z,11.80
2018-12-07T06:21:18.497Z,11.80
2018-12-07T06:22:23.415Z,11.80
2018-12-07T06:23:27.922Z,11.80
2018-12-07T06:24:33.083Z,11.80
2018-12-07T06:25:38.825Z,11.70
2018-12-07T06:26:44.101Z,11.80
2018-12-07T06:27:49.238Z,11.70
2018-12-07T06:28:53.952Z,11.80
2018-12-07T06:29:58.649Z,11.80
2018-12-07T06:31:03.600Z,11.70
2018-12-07T06:32:08.283Z,11.80
2018-12-07T06:33:12.810Z,11.80
2018-12-07T06:34:17.998Z,11.80
2018-12-07T06:35:24.481Z,11.80
2018-12-07T06:36:35.239Z,11.80
2018-12-07T06:37:40.292Z,11.80
2018-12-07T06:38:45.955Z,11.80
2018-12-07T06:39:52.334Z,11.80
2018-12-07T06:40:58.099Z,11.80
2018-12-07T06:42:02.866Z,11.80
2018-12-07T06:43:07.910Z,11.80
2018-12-07T06:44:12.464Z,11.80
2018-12-07T06:45:17.227Z,11.80
2018-12-07T06:46:22.198Z,11.80
2018-12-07T06:47:26.718Z,11.80
2018-12-07T06:48:31.617Z,11.80
2018-12-07T06:49:36.161Z,11.80
2018-12-07T06:50:40.601Z,11.80
2018-12-07T06:51:45.732Z,11.80
2018-12-07T06:52:50.252Z,11.80
2018-12-07T06:53:55.649Z,11.80
2018-12-07T06:55:00.170Z,11.80
2018-12-07T06:56:04.720Z,11.80
2018-12-07T06:57:09.264Z,11.80
2018-12-07T06:58:14.472Z,11.80
2018-12-07T06:59:19.532Z,11.80
2018-12-07T07:00:25.211Z,11.80
2018-12-07T07:01:30.274Z,11.90
2018-12-07T07:02:40.700Z,11.90
2018-12-07T07:03:45.149Z,11.80
2018-12-07T07:04:54.424Z,11.90
2018-12-07T07:06:01.129Z,11.90
2018-12-07T07:07:09.231Z,11.90
2018-12-07T07:08:14.312Z,11.90
2018-12-07T07:09:19.339Z,11.90
2018-12-07T07:10:24.923Z,11.90
2018-12-07T07:11:29.910Z,11.90
2018-12-07T07:12:35.299Z,11.90
2018-12-07T07:13:42.294Z,11.90
2018-12-07T07:14:47.876Z,11.90
2018-12-07T07:15:54.916Z,11.90
2018-12-07T07:17:01.128Z,11.90
2018-12-07T07:18:05.853Z,11.90
2018-12-07T07:19:11.283Z,11.90
2018-12-07T07:20:16.596Z,11.90
2018-12-07T07:21:22.419Z,11.90
2018-12-07T07:22:27.461Z,11.90
2018-12-07T07:23:32.414Z,11.90
2018-12-07T07:24:37.407Z,11.90
2018-12-07T07:25:43.384Z,11.90
2018-12-07T07:26:47.728Z,12.00
2018-12-07T07:27:51.990Z,12.00
2018-12-07T07:28:56.319Z,11.90
2018-12-07T07:30:00.662Z,12.00
2018-12-07T07:31:06.343Z,12.00
2018-12-07T07:32:14.118Z,12.00
2018-12-07T07:33:18.613Z,12.00
2018-12-07T07:34:23.024Z,12.00
2018-12-07T07:35:30.792Z,12.00
2018-12-07T07:36:36.372Z,12.00
2018-12-07T07:37:41.724Z,12.00
2018-12-07T07:38:47.085Z,12.00
2018-12-07T07:39:52.448Z,12.10
2018-12-07T07:40:58.402Z,12.10
2018-12-07T07:42:02.844Z,12.10
2018-12-07T07:43:07.470Z,12.10
2018-12-07T07:44:11.883Z,12.10
2018-12-07T07:45:17.333Z,12.10
2018-12-07T07:46:21.842Z,12.10
2018-12-07T07:47:26.149Z,12.10
2018-12-07T07:48:30.537Z,12.20
2018-12-07T07:49:35.091Z,12.10
2018-12-07T07:50:39.459Z,12.10
2018-12-07T07:51:44.301Z,12.10
2018-12-07T07:52:48.793Z,12.10
2018-12-07T07:53:53.096Z,12.20
2018-12-07T07:54:57.829Z,12.20
2018-12-07T07:56:03.581Z,12.20
2018-12-07T07:57:08.318Z,12.20
2018-12-07T07:58:13.041Z,12.20
2018-12-07T07:59:17.456Z,12.20
2018-12-07T08:00:23.325Z,12.20
2018-12-07T08:01:30.701Z,12.20
2018-12-07T08:02:36.314Z,12.20
2018-12-07T08:05:49.359Z,12.20
2018-12-07T08:06:53.815Z,12.20
2018-12-07T08:07:58.431Z,12.20
2018-12-07T08:09:03.276Z,12.20
2018-12-07T08:10:08.480Z,12.20
2018-12-07T08:11:15.205Z,12.20
2018-12-07T08:12:20.248Z,12.20
2018-12-07T08:13:25.376Z,12.20
2018-12-07T08:14:32.273Z,12.20
2018-12-07T08:15:37.878Z,12.30
2018-12-07T08:16:43.898Z,12.30
2018-12-07T08:17:49.259Z,12.30
2018-12-07T08:18:56.586Z,12.30
2018-12-07T08:20:01.443Z,12.30
2018-12-07T08:21:07.802Z,12.30
2018-12-07T08:22:14.184Z,12.30
2018-12-07T08:23:21.572Z,12.30
2018-12-07T08:24:26.212Z,12.30
2018-12-07T08:25:34.218Z,12.30
2018-12-07T08:27:56.371Z,12.30
2018-12-07T08:29:03.274Z,12.30
2018-12-07T08:30:11.351Z,12.30
2018-12-07T08:31:16.480Z,12.30
2018-12-07T08:32:25.756Z,12.30
2018-12-07T08:33:32.753Z,12.30
2018-12-07T08:34:45.437Z,12.30
2018-12-07T08:35:53.915Z,12.30
2018-12-07T08:37:00.294Z,12.30
2018-12-07T08:38:08.320Z,12.30
2018-12-07T08:39:14.327Z,12.30
2018-12-07T08:40:28.236Z,12.40
2018-12-07T08:41:36.860Z,12.40
2018-12-07T08:42:42.766Z,12.40
2018-12-07T08:43:51.202Z,12.40
2018-12-07T08:44:58.789Z,12.40
2018-12-07T08:46:04.466Z,12.40
2018-12-07T08:47:11.344Z,12.40
2018-12-07T08:48:21.294Z,12.40
2018-12-07T08:49:31.798Z,12.40
2018-12-07T08:50:38.544Z,12.40
2018-12-07T08:51:45.516Z,12.40
2018-12-07T08:52:52.963Z,12.40
2018-12-07T08:53:58.311Z,12.40
2018-12-07T08:55:04.113Z,12.50
2018-12-07T08:56:15.202Z,12.50
2018-12-07T08:57:20.894Z,12.50
2018-12-07T08:58:25.933Z,12.50
2018-12-07T08:59:31.683Z,12.50
2018-12-07T09:00:38.730Z,12.50
2018-12-07T09:01:43.274Z,12.50
2018-12-07T09:02:50.008Z,12.50
2018-12-07T09:03:56.418Z,12.50
2018-12-07T09:05:05.312Z,12.50
2018-12-07T09:06:11.456Z,12.50
2018-12-07T09:07:21.383Z,12.50
2018-12-07T09:08:26.321Z,12.50
2018-12-07T09:09:31.728Z,12.50
2018-12-07T09:10:39.671Z,12.60
2018-12-07T09:11:44.746Z,12.60
2018-12-07T09:12:49.981Z,12.50
2018-12-07T09:13:55.232Z,12.60
2018-12-07T09:15:00.260Z,12.60
2018-12-07T09:16:07.234Z,12.60
2018-12-07T09:17:12.194Z,12.60
2018-12-07T09:18:18.368Z,12.60
2018-12-07T09:19:24.233Z,12.60
2018-12-07T09:20:28.973Z,12.60
2018-12-07T09:21:34.764Z,12.60
2018-12-07T09:22:39.850Z,12.60
2018-12-07T09:23:49.523Z,12.60
2018-12-07T09:24:51.735Z,12.60
2018-12-07T09:25:56.629Z,12.60
2018-12-07T09:27:03.036Z,12.60
2018-12-07T09:28:08.462Z,12.60
2018-12-07T09:29:14.001Z,12.60
2018-12-07T09:30:20.491Z,12.60
2018-12-07T09:31:26.274Z,12.60
2018-12-07T09:32:31.093Z,12.60
2018-12-07T09:33:35.815Z,12.60
2018-12-07T09:34:40.659Z,12.60
2018-12-07T09:35:46.748Z,12.60
2018-12-07T09:36:52.916Z,12.60
2018-12-07T09:37:57.783Z,12.60
2018-12-07T09:39:04.483Z,12.60
2018-12-07T09:40:09.513Z,12.60
2018-12-07T09:41:15.743Z,12.60
2018-12-07T09:42:24.059Z,12.70
2018-12-07T09:43:32.425Z,12.70
2018-12-07T09:44:38.411Z,12.70
2018-12-07T09:45:45.775Z,12.70
2018-12-07T09:46:51.611Z,12.70
2018-12-07T09:47:58.089Z,12.70
2018-12-07T09:49:03.015Z,12.70
2018-12-07T09:50:08.743Z,12.80
2018-12-07T09:51:14.661Z,12.80
2018-12-07T09:52:20.849Z,12.80
2018-12-07T09:53:26.091Z,12.80
2018-12-07T09:54:34.299Z,12.80
2018-12-07T09:55:41.896Z,12.80
2018-12-07T09:56:48.684Z,12.80
2018-12-07T09:57:53.916Z,12.80
2018-12-07T09:58:59.363Z,12.80
2018-12-07T10:00:05.496Z,12.80
2018-12-07T10:01:11.048Z,12.80
2018-12-07T10:02:16.838Z,12.90
2018-12-07T10:03:21.732Z,12.90
2018-12-07T10:04:28.428Z,12.90
2018-12-07T10:05:33.912Z,12.90
2018-12-07T10:06:42.889Z,12.80
2018-12-07T10:07:48.689Z,12.80
2018-12-07T10:08:53.671Z,12.80
2018-12-07T10:09:58.783Z,12.80
2018-12-07T10:11:07.953Z,12.80
2018-12-07T10:12:12.797Z,12.90
2018-12-07T10:13:18.901Z,12.90
2018-12-07T10:14:25.723Z,12.90
2018-12-07T10:15:30.949Z,12.90
2018-12-07T10:16:36.756Z,12.90
2018-12-07T10:17:45.646Z,12.90
2018-12-07T10:18:52.356Z,12.90
2018-12-07T10:19:59.414Z,12.90
2018-12-07T10:21:04.678Z,12.90
2018-12-07T10:22:11.560Z,12.90
2018-12-07T10:23:19.707Z,12.90
2018-12-07T10:24:24.408Z,12.90
2018-12-07T10:25:29.994Z,12.90
2018-12-07T10:26:36.577Z,12.90
2018-12-07T10:27:43.378Z,12.90
2018-12-07T10:28:50.568Z,12.90
2018-12-07T10:29:58.015Z,12.90
2018-12-07T10:31:02.753Z,12.90
2018-12-07T10:32:07.670Z,12.90
2018-12-07T10:33:12.696Z,12.90
2018-12-07T10:34:17.659Z,12.90
2018-12-07T10:35:22.505Z,13.00
2018-12-07T10:36:27.408Z,12.90
2018-12-07T10:37:32.585Z,12.90
2018-12-07T10:38:38.345Z,12.90
2018-12-07T10:39:45.020Z,12.90
2018-12-07T10:40:49.903Z,12.90
2018-12-07T10:41:55.051Z,12.90
2018-12-07T10:43:00.369Z,12.90
2018-12-07T10:44:07.052Z,12.90
2018-12-07T10:45:14.860Z,12.90
2018-12-07T10:46:21.002Z,12.90
2018-12-07T10:47:26.399Z,12.90
2018-12-07T10:49:03.598Z,12.90
2018-12-07T10:50:08.561Z,12.90
2018-12-07T10:51:13.593Z,13.00
2018-12-07T10:52:19.733Z,12.90
2018-12-07T10:53:25.965Z,13.00
2018-12-07T10:54:31.452Z,13.00
2018-12-07T10:55:38.421Z,13.00
2018-12-07T10:56:48.805Z,13.00
2018-12-07T10:57:54.538Z,13.00
2018-12-07T10:59:00.715Z,13.10
2018-12-07T11:00:10.881Z,13.10
2018-12-07T11:01:21.690Z,13.00
2018-12-07T11:02:32.054Z,13.00
2018-12-07T11:03:41.984Z,13.00
2018-12-07T11:04:52.925Z,13.00
2018-12-07T11:06:03.128Z,13.10
2018-12-07T11:07:13.414Z,13.00
2018-12-07T11:08:23.626Z,13.10
2018-12-07T11:11:37.533Z,13.10
2018-12-07T11:12:49.010Z,13.10
2018-12-07T11:13:58.784Z,13.20
2018-12-07T11:15:08.564Z,13.20
2018-12-07T11:16:19.566Z,13.20
2018-12-07T11:17:29.758Z,13.20
2018-12-07T11:18:39.359Z,13.20
2018-12-07T11:19:49.596Z,13.20
2018-12-07T11:21:00.082Z,13.20
2018-12-07T11:22:11.560Z,13.20
2018-12-07T11:29:49.413Z,13.20
2018-12-07T11:31:00.563Z,13.20
2018-12-07T11:33:32.758Z,13.20
2018-12-07T11:34:47.285Z,13.20
2018-12-07T11:35:52.433Z,13.20
2018-12-07T11:36:57.432Z,13.20
2018-12-07T11:38:03.338Z,13.30
2018-12-07T11:39:13.845Z,13.30
2018-12-07T11:40:22.122Z,13.30
2018-12-07T11:41:28.138Z,13.30
2018-12-07T11:42:34.191Z,13.30
2018-12-07T11:43:38.891Z,13.30
2018-12-07T11:44:44.296Z,13.30
2018-12-07T11:45:49.537Z,13.30
2018-12-07T11:46:54.420Z,13.40
2018-12-07T11:47:59.748Z,13.40
2018-12-07T11:49:05.382Z,13.30
2018-12-07T11:50:13.400Z,13.30
2018-12-07T11:51:23.606Z,13.30
2018-12-07T11:52:29.909Z,13.30
2018-12-07T11:56:24.331Z,13.40
2018-12-07T11:57:30.325Z,13.30
2018-12-07T11:58:35.369Z,13.40
2018-12-07T11:59:40.108Z,13.40
2018-12-07T12:00:45.343Z,13.40
2018-12-07T12:01:51.058Z,13.40
2018-12-07T12:02:56.460Z,13.30
2018-12-07T12:04:02.223Z,13.40
2018-12-07T12:05:07.400Z,13.40
2018-12-07T12:06:12.206Z,13.30
2018-12-07T12:07:19.286Z,13.30
2018-12-07T12:08:26.406Z,13.30
2018-12-07T12:09:31.948Z,13.30
2018-12-07T12:10:39.936Z,13.40
2018-12-07T12:11:45.316Z,13.40
2018-12-07T12:12:50.289Z,13.40
2018-12-07T12:13:59.096Z,13.40
2018-12-07T12:15:04.838Z,13.40
2018-12-07T12:16:11.284Z,13.40
2018-12-07T12:17:17.179Z,13.40
2018-12-07T12:18:21.915Z,13.40
2018-12-07T12:19:27.840Z,13.40
2018-12-07T12:20:34.411Z,13.40
2018-12-07T12:21:40.429Z,13.40
2018-12-07T12:22:48.465Z,13.40
2018-12-07T12:24:00.595Z,13.50
2018-12-07T12:25:08.309Z,13.40
2018-12-07T12:26:13.609Z,13.40
2018-12-07T12:27:20.278Z,13.40
2018-12-07T12:28:29.321Z,13.50
2018-12-07T12:29:37.336Z,13.40
2018-12-07T12:30:43.859Z,13.50
2018-12-07T12:31:48.935Z,13.50
2018-12-07T12:32:54.559Z,13.50
2018-12-07T12:33:59.469Z,13.50
2018-12-07T12:35:05.501Z,13.50
2018-12-07T12:36:17.018Z,13.50
2018-12-07T12:37:18.342Z,13.50
2018-12-07T12:38:24.935Z,13.50
2018-12-07T12:39:29.981Z,13.50
2018-12-07T12:40:34.802Z,13.40
2018-12-07T12:41:46.759Z,13.50
2018-12-07T12:42:49.770Z,13.50
2018-12-07T12:43:54.747Z,13.50
2018-12-07T12:44:59.460Z,13.50
2018-12-07T12:46:05.531Z,13.50
2018-12-07T12:47:10.623Z,13.50
2018-12-07T12:48:26.097Z,13.50
2018-12-07T12:49:34.034Z,13.50
2018-12-07T12:50:40.875Z,13.40
2018-12-07T12:51:46.340Z,13.40
2018-12-07T12:52:54.394Z,13.40
2018-12-07T12:54:06.967Z,13.50
2018-12-07T12:55:12.588Z,13.50
2018-12-07T12:56:18.578Z,13.40
2018-12-07T12:57:23.398Z,13.40
2018-12-07T12:58:29.114Z,13.50
2018-12-07T12:59:36.085Z,13.50
2018-12-07T13:00:41.492Z,13.40
2018-12-07T13:01:46.328Z,13.50
2018-12-07T13:02:52.098Z,13.50
2018-12-07T13:03:56.921Z,13.50
2018-12-07T13:05:02.026Z,13.50
2018-12-07T13:06:10.714Z,13.60
2018-12-07T13:07:15.534Z,13.60
2018-12-07T13:08:21.769Z,13.60
2018-12-07T13:09:27.858Z,13.70
2018-12-07T13:10:33.542Z,13.70
2018-12-07T13:11:38.250Z,13.70
2018-12-07T13:12:46.201Z,13.70
2018-12-07T13:13:54.149Z,13.70
2018-12-07T13:15:00.163Z,13.70
2018-12-07T13:16:05.447Z,13.70
2018-12-07T13:17:13.669Z,13.70
2018-12-07T13:18:20.870Z,13.70
2018-12-07T13:19:26.341Z,13.70
2018-12-07T13:20:31.634Z,13.60
2018-12-07T13:21:42.277Z,13.60
2018-12-07T13:22:49.434Z,13.70
2018-12-07T13:23:58.619Z,13.70
2018-12-07T13:25:14.654Z,13.70
2018-12-07T13:26:32.629Z,13.70
2018-12-07T13:27:53.681Z,13.70
2018-12-07T13:29:04.614Z,13.60
2018-12-07T13:30:23.099Z,13.60
2018-12-07T13:31:33.215Z,13.60
2018-12-07T13:32:43.562Z,13.70
2018-12-07T13:33:50.305Z,13.70
2018-12-07T13:34:57.748Z,13.70
2018-12-07T13:36:04.234Z,13.70
2018-12-07T13:37:12.790Z,13.70
2018-12-07T13:38:20.851Z,13.60
2018-12-07T13:39:27.553Z,13.60
2018-12-07T13:40:37.718Z,13.60
2018-12-07T13:41:50.201Z,13.60
2018-12-07T13:42:53.546Z,13.60
2018-12-07T13:44:00.824Z,13.60
2018-12-07T13:45:12.348Z,13.60
2018-12-07T13:46:19.984Z,13.50
2018-12-07T13:47:25.243Z,13.60
2018-12-07T13:48:30.458Z,13.60
2018-12-07T13:49:37.769Z,13.60
2018-12-07T13:50:47.513Z,13.50
2018-12-07T13:51:53.019Z,13.50
2018-12-07T13:52:58.198Z,13.50
2018-12-07T13:54:05.349Z,13.50
2018-12-07T13:55:11.278Z,13.50
2018-12-07T13:56:16.589Z,13.50
2018-12-07T13:57:21.866Z,13.50
2018-12-07T13:58:26.814Z,13.40
2018-12-07T13:59:33.437Z,13.40
2018-12-07T14:00:39.702Z,13.50
2018-12-07T14:01:44.856Z,13.50
2018-12-07T14:02:50.603Z,13.50
2018-12-07T14:03:57.284Z,13.50
2018-12-07T14:05:04.427Z,13.50
2018-12-07T14:06:10.482Z,13.40
2018-12-07T14:07:15.592Z,13.40
2018-12-07T14:08:22.597Z,13.40
2018-12-07T14:09:27.668Z,13.50
2018-12-07T14:10:32.672Z,13.50
2018-12-07T14:11:39.775Z,13.50
2018-12-07T14:12:46.110Z,13.50
2018-12-07T14:13:51.817Z,13.50
2018-12-07T14:14:57.929Z,13.50
2018-12-07T14:16:10.871Z,13.50
2018-12-07T14:17:17.957Z,13.50
2018-12-07T14:18:26.706Z,13.50
2018-12-07T14:19:32.591Z,13.50
2018-12-07T14:20:37.690Z,13.50
2018-12-07T14:21:43.384Z,13.40
2018-12-07T14:22:50.587Z,13.40
2018-12-07T14:23:57.647Z,13.40
2018-12-07T14:25:03.227Z,13.40
2018-12-07T14:26:09.579Z,13.40